sensor_id;sensor_type;location;lat;lon;timestamp;pressure;altitude;pressure_sealevel;temperature
77355;BMP280;66422;51.202;19.936;2023-05-07T00:05:03;99716.03;;;7.35
77355;BMP280;66422;51.202;19.936;2023-05-07T00:20:23;99717.58;;;7.06
77355;BMP280;66422;51.202;19.936;2023-05-07T00:35:42;99719.08;;;7.09
77355;BMP280;66422;51.202;19.936;2023-05-07T00:51:02;99724.68;;;7.17
77355;BMP280;66422;51.202;19.936;2023-05-07T01:06:23;99749.02;;;7.09
77355;BMP280;66422;51.202;19.936;2023-05-07T01:21:46;99748.11;;;7.04
77355;BMP280;66422;51.202;19.936;2023-05-07T01:37:07;99736.52;;;7.00
77355;BMP280;66422;51.202;19.936;2023-05-07T01:52:27;99748.00;;;7.05
77355;BMP280;66422;51.202;19.936;2023-05-07T02:07:47;99758.77;;;6.82
77355;BMP280;66422;51.202;19.936;2023-05-07T02:23:08;99764.13;;;6.73
77355;BMP280;66422;51.202;19.936;2023-05-07T02:38:27;99780.30;;;6.73
77355;BMP280;66422;51.202;19.936;2023-05-07T02:53:48;99793.14;;;6.91
77355;BMP280;66422;51.202;19.936;2023-05-07T03:09:07;99789.95;;;6.91
77355;BMP280;66422;51.202;19.936;2023-05-07T03:24:28;99799.05;;;6.85
77355;BMP280;66422;51.202;19.936;2023-05-07T03:39:48;99805.43;;;6.98
77355;BMP280;66422;51.202;19.936;2023-05-07T03:55:08;99817.31;;;6.78
77355;BMP280;66422;51.202;19.936;2023-05-07T04:10:29;99832.39;;;6.69
77355;BMP280;66422;51.202;19.936;2023-05-07T04:25:50;99838.98;;;6.74
77355;BMP280;66422;51.202;19.936;2023-05-07T04:41:16;99859.63;;;6.78
77355;BMP280;66422;51.202;19.936;2023-05-07T04:56:37;99882.88;;;6.89
77355;BMP280;66422;51.202;19.936;2023-05-07T05:11:57;99900.12;;;6.89
77355;BMP280;66422;51.202;19.936;2023-05-07T05:27:17;99906.33;;;7.01
77355;BMP280;66422;51.202;19.936;2023-05-07T05:42:36;99930.35;;;7.25
77355;BMP280;66422;51.202;19.936;2023-05-07T05:57:56;99943.09;;;7.28
77355;BMP280;66422;51.202;19.936;2023-05-07T06:13:16;99955.66;;;7.32
77355;BMP280;66422;51.202;19.936;2023-05-07T06:28:37;99975.11;;;7.32
77355;BMP280;66422;51.202;19.936;2023-05-07T06:43:58;99989.52;;;7.64
77355;BMP280;66422;51.202;19.936;2023-05-07T06:59:23;100003.73;;;7.77
77355;BMP280;66422;51.202;19.936;2023-05-07T07:14:43;100018.80;;;7.68
77355;BMP280;66422;51.202;19.936;2023-05-07T07:30:04;100011.65;;;7.50
77355;BMP280;66422;51.202;19.936;2023-05-07T07:45:25;100036.95;;;7.76
77355;BMP280;66422;51.202;19.936;2023-05-07T08:00:45;100045.05;;;7.66
77355;BMP280;66422;51.202;19.936;2023-05-07T08:16:05;100094.14;;;7.36
77355;BMP280;66422;51.202;19.936;2023-05-07T08:31:27;100091.55;;;7.41
77355;BMP280;66422;51.202;19.936;2023-05-07T08:46:48;100111.18;;;7.53
77355;BMP280;66422;51.202;19.936;2023-05-07T09:02:11;100117.77;;;7.81
77355;BMP280;66422;51.202;19.936;2023-05-07T09:17:31;100127.34;;;7.50
77355;BMP280;66422;51.202;19.936;2023-05-07T09:32:51;100144.77;;;7.74
77355;BMP280;66422;51.202;19.936;2023-05-07T09:48:14;100181.46;;;7.76
77355;BMP280;66422;51.202;19.936;2023-05-07T10:03:40;100188.84;;;7.85
77355;BMP280;66422;51.202;19.936;2023-05-07T10:19:05;100199.54;;;8.08
77355;BMP280;66422;51.202;19.936;2023-05-07T10:34:34;100209.58;;;8.31
77355;BMP280;66422;51.202;19.936;2023-05-07T11:05:30;100226.89;;;8.26
77355;BMP280;66422;51.202;19.936;2023-05-07T11:21:05;100231.23;;;8.32
77355;BMP280;66422;51.202;19.936;2023-05-07T11:36:41;100255.91;;;9.17
77355;BMP280;66422;51.202;19.936;2023-05-07T11:52:05;100255.19;;;8.99
77355;BMP280;66422;51.202;19.936;2023-05-07T12:07:25;100281.49;;;8.73
77355;BMP280;66422;51.202;19.936;2023-05-07T12:22:45;100279.00;;;9.30
77355;BMP280;66422;51.202;19.936;2023-05-07T12:38:23;100282.73;;;9.22
77355;BMP280;66422;51.202;19.936;2023-05-07T12:53:43;100298.22;;;9.47
77355;BMP280;66422;51.202;19.936;2023-05-07T13:09:04;100308.30;;;9.94
77355;BMP280;66422;51.202;19.936;2023-05-07T13:24:24;100316.50;;;8.92
77355;BMP280;66422;51.202;19.936;2023-05-07T13:39:44;100318.56;;;9.78
77355;BMP280;66422;51.202;19.936;2023-05-07T13:55:05;100317.46;;;9.79
77355;BMP280;66422;51.202;19.936;2023-05-07T14:10:25;100318.44;;;10.00
77355;BMP280;66422;51.202;19.936;2023-05-07T14:25:45;100306.70;;;10.01
77355;BMP280;66422;51.202;19.936;2023-05-07T14:41:06;100314.77;;;9.57
77355;BMP280;66422;51.202;19.936;2023-05-07T14:56:26;100334.73;;;9.58
77355;BMP280;66422;51.202;19.936;2023-05-07T15:11:46;100352.94;;;10.17
77355;BMP280;66422;51.202;19.936;2023-05-07T15:27:06;100355.36;;;9.84
77355;BMP280;66422;51.202;19.936;2023-05-07T15:42:26;100372.63;;;9.82
77355;BMP280;66422;51.202;19.936;2023-05-07T15:57:46;100370.14;;;9.87
77355;BMP280;66422;51.202;19.936;2023-05-07T16:13:06;100378.40;;;9.58
77355;BMP280;66422;51.202;19.936;2023-05-07T16:28:26;100389.90;;;9.92
77355;BMP280;66422;51.202;19.936;2023-05-07T16:43:46;100406.68;;;9.33
77355;BMP280;66422;51.202;19.936;2023-05-07T16:59:05;100402.18;;;9.23
77355;BMP280;66422;51.202;19.936;2023-05-07T17:14:25;100409.55;;;9.10
77355;BMP280;66422;51.202;19.936;2023-05-07T17:29:45;100405.20;;;9.09
77355;BMP280;66422;51.202;19.936;2023-05-07T17:45:05;100418.36;;;9.25
77355;BMP280;66422;51.202;19.936;2023-05-07T18:00:24;100437.20;;;9.21
77355;BMP280;66422;51.202;19.936;2023-05-07T18:15:45;100440.23;;;9.10
77355;BMP280;66422;51.202;19.936;2023-05-07T18:31:05;100466.23;;;8.18
77355;BMP280;66422;51.202;19.936;2023-05-07T18:46:24;100479.98;;;7.49
77355;BMP280;66422;51.202;19.936;2023-05-07T19:01:44;100486.93;;;6.46
77355;BMP280;66422;51.202;19.936;2023-05-07T19:17:04;100489.77;;;6.23
77355;BMP280;66422;51.202;19.936;2023-05-07T19:32:24;100513.45;;;5.66
77355;BMP280;66422;51.202;19.936;2023-05-07T19:47:46;100511.18;;;5.60
77355;BMP280;66422;51.202;19.936;2023-05-07T20:03:06;100513.99;;;5.17
77355;BMP280;66422;51.202;19.936;2023-05-07T20:18:27;100532.27;;;4.38
77355;BMP280;66422;51.202;19.936;2023-05-07T20:33:47;100530.45;;;4.37
77355;BMP280;66422;51.202;19.936;2023-05-07T20:49:06;100536.06;;;4.11
77355;BMP280;66422;51.202;19.936;2023-05-07T21:04:26;100545.25;;;3.73
77355;BMP280;66422;51.202;19.936;2023-05-07T21:19:45;100546.82;;;3.46
77355;BMP280;66422;51.202;19.936;2023-05-07T21:35:06;100564.89;;;2.94
77355;BMP280;66422;51.202;19.936;2023-05-07T21:50:26;100570.86;;;2.81
77355;BMP280;66422;51.202;19.936;2023-05-07T22:05:45;100585.30;;;2.85
77355;BMP280;66422;51.202;19.936;2023-05-07T22:21:05;100589.73;;;2.46
77355;BMP280;66422;51.202;19.936;2023-05-07T22:36:25;100591.34;;;2.27
77355;BMP280;66422;51.202;19.936;2023-05-07T22:51:45;100588.66;;;2.14
77355;BMP280;66422;51.202;19.936;2023-05-07T23:07:05;100578.91;;;2.07
77355;BMP280;66422;51.202;19.936;2023-05-07T23:22:25;100572.09;;;1.96
77355;BMP280;66422;51.202;19.936;2023-05-07T23:37:45;100572.25;;;2.31
77355;BMP280;66422;51.202;19.936;2023-05-07T23:53:05;100561.73;;;2.49
